createdAt,value
2019-05-15T00:00:09.381Z,7.58
2019-05-15T00:01:09.169Z,7.55
2019-05-15T00:02:10.852Z,7.41
2019-05-15T00:03:09.145Z,7.34
2019-05-15T00:04:09.430Z,7.40
2019-05-15T00:05:09.269Z,7.34
2019-05-15T00:06:09.111Z,7.40
2019-05-15T00:07:09.099Z,7.31
2019-05-15T00:08:09.627Z,7.41
2019-05-15T00:09:09.085Z,7.38
2019-05-15T00:10:09.166Z,7.34
2019-05-15T00:11:09.081Z,7.32
2019-05-15T00:12:09.050Z,7.35
2019-05-15T00:13:09.508Z,7.34
2019-05-15T00:14:09.028Z,7.27
2019-05-15T00:15:09.574Z,7.20
2019-05-15T00:16:09.028Z,7.24
2019-05-15T00:17:08.996Z,7.22
2019-05-15T00:18:09.009Z,7.26
2019-05-15T00:19:08.987Z,7.15
2019-05-15T00:20:09.926Z,7.23
2019-05-15T00:21:09.485Z,7.22
2019-05-15T00:22:08.945Z,7.23
2019-05-15T00:23:08.937Z,7.24
2019-05-15T00:24:13.064Z,7.23
2019-05-15T00:25:09.469Z,7.23
2019-05-15T00:26:09.425Z,7.17
2019-05-15T00:27:08.894Z,7.16
2019-05-15T00:28:09.682Z,7.09
2019-05-15T00:29:15.649Z,7.16
2019-05-15T00:30:09.861Z,7.09
2019-05-15T00:31:09.229Z,7.05
2019-05-15T00:32:09.228Z,7.08
2019-05-15T00:33:09.346Z,7.09
2019-05-15T00:34:12.804Z,7.09
2019-05-15T00:35:09.577Z,7.09
2019-05-15T00:36:08.925Z,7.13
2019-05-15T00:37:09.111Z,7.12
2019-05-15T00:38:09.465Z,7.15
2019-05-15T00:39:08.768Z,7.12
2019-05-15T00:40:09.132Z,7.01
2019-05-15T00:41:09.496Z,6.99
2019-05-15T00:42:08.758Z,7.01
2019-05-15T00:43:09.059Z,6.99
2019-05-15T00:44:09.333Z,6.90
2019-05-15T00:45:09.372Z,6.95
2019-05-15T00:46:09.371Z,6.91
2019-05-15T00:47:10.436Z,6.87
2019-05-15T00:48:09.077Z,6.86
2019-05-15T00:49:08.846Z,6.77
2019-05-15T00:50:08.978Z,6.87
2019-05-15T00:51:08.641Z,6.86
2019-05-15T00:52:12.104Z,6.79
2019-05-15T00:53:08.827Z,6.73
2019-05-15T00:54:08.614Z,6.76
2019-05-15T00:55:08.968Z,6.73
2019-05-15T00:56:09.038Z,6.69
2019-05-15T00:57:08.682Z,6.73
2019-05-15T00:58:08.920Z,6.72
2019-05-15T00:59:08.560Z,6.72
2019-05-15T01:00:08.545Z,6.63
2019-05-15T01:01:08.542Z,6.72
2019-05-15T01:02:08.817Z,6.65
2019-05-15T01:03:08.924Z,6.61
2019-05-15T01:04:08.510Z,6.63
2019-05-15T01:05:08.551Z,6.54
2019-05-15T01:06:08.606Z,6.58
2019-05-15T01:07:08.515Z,6.61
2019-05-15T01:08:08.492Z,6.61
2019-05-15T01:09:08.535Z,6.54
2019-05-15T01:10:09.845Z,6.58
2019-05-15T01:11:09.132Z,6.53
2019-05-15T01:12:09.042Z,6.56
2019-05-15T01:13:08.715Z,6.44
2019-05-15T01:14:12.127Z,6.40
2019-05-15T01:15:09.191Z,6.43
2019-05-15T01:16:09.138Z,6.47
2019-05-15T01:17:09.132Z,6.40
2019-05-15T01:18:09.329Z,6.38
2019-05-15T01:19:09.241Z,6.48
2019-05-15T01:20:08.666Z,6.46
2019-05-15T01:21:08.584Z,6.44
2019-05-15T01:22:08.838Z,6.35
2019-05-15T01:23:09.059Z,6.38
2019-05-15T01:24:08.515Z,6.36
2019-05-15T01:25:08.786Z,6.32
2019-05-15T01:26:08.501Z,6.26
2019-05-15T01:27:09.128Z,6.32
2019-05-15T01:28:09.334Z,6.36
2019-05-15T01:29:09.103Z,6.29
2019-05-15T01:30:08.957Z,6.26
2019-05-15T01:31:08.693Z,6.14
2019-05-15T01:32:08.530Z,6.18
2019-05-15T01:33:08.478Z,6.22
2019-05-15T01:34:08.989Z,6.22
2019-05-15T01:35:09.488Z,6.10
2019-05-15T01:36:08.614Z,6.21
2019-05-15T01:37:08.630Z,6.09
2019-05-15T01:38:08.456Z,6.10
2019-05-15T01:39:08.156Z,6.11
2019-05-15T01:40:08.775Z,6.14
2019-05-15T01:41:09.751Z,6.06
2019-05-15T01:42:08.423Z,6.03
2019-05-15T01:43:09.078Z,6.09
2019-05-15T01:44:08.785Z,6.03
2019-05-15T01:45:08.674Z,6.00
2019-05-15T01:46:08.558Z,6.03
2019-05-15T01:47:08.550Z,6.01
2019-05-15T01:48:08.265Z,6.01
2019-05-15T01:49:08.118Z,5.91
2019-05-15T01:50:09.336Z,5.98
2019-05-15T01:51:09.288Z,6.04
2019-05-15T01:52:08.118Z,5.98
2019-05-15T01:53:08.415Z,5.96
2019-05-15T01:54:09.158Z,5.95
2019-05-15T01:55:09.172Z,5.92
2019-05-15T01:56:08.580Z,6.00
2019-05-15T01:57:09.274Z,6.00
2019-05-15T01:58:09.040Z,5.93
2019-05-15T01:59:08.669Z,5.95
2019-05-15T02:00:08.697Z,5.96
2019-05-15T02:01:08.313Z,5.98
2019-05-15T02:02:09.631Z,5.98
2019-05-15T02:03:09.790Z,5.93
2019-05-15T02:04:08.347Z,5.82
2019-05-15T02:05:08.718Z,5.93
2019-05-15T02:06:15.410Z,5.96
2019-05-15T02:07:08.328Z,5.98
2019-05-15T02:08:08.317Z,5.86
2019-05-15T02:09:08.400Z,5.89
2019-05-15T02:10:09.175Z,5.93
2019-05-15T02:11:09.208Z,5.85
2019-05-15T02:12:08.699Z,5.92
2019-05-15T02:13:08.595Z,5.88
2019-05-15T02:14:08.355Z,5.82
2019-05-15T02:15:08.533Z,5.83
2019-05-15T02:16:08.385Z,5.83
2019-05-15T02:17:08.484Z,5.77
2019-05-15T02:18:08.382Z,5.83
2019-05-15T02:19:08.967Z,5.74
2019-05-15T02:20:08.674Z,5.82
2019-05-15T02:21:10.244Z,5.83
2019-05-15T02:22:08.383Z,5.75
2019-05-15T02:23:11.586Z,5.75
2019-05-15T02:24:08.023Z,5.73
2019-05-15T02:25:08.609Z,5.74
2019-05-15T02:26:08.068Z,5.71
2019-05-15T02:27:08.999Z,5.71
2019-05-15T02:28:09.437Z,5.70
2019-05-15T02:29:08.350Z,5.67
2019-05-15T02:30:18.284Z,5.70
2019-05-15T02:31:10.387Z,5.63
2019-05-15T02:32:10.220Z,5.67
2019-05-15T02:33:10.703Z,5.67
2019-05-15T02:34:10.111Z,5.55
2019-05-15T02:35:10.057Z,5.63
2019-05-15T02:36:09.751Z,5.55
2019-05-15T02:37:08.935Z,5.55
2019-05-15T02:38:10.114Z,5.53
2019-05-15T02:39:08.981Z,5.52
2019-05-15T02:40:09.869Z,5.41
2019-05-15T02:41:09.914Z,5.48
2019-05-15T02:42:09.928Z,5.46
2019-05-15T02:43:10.048Z,5.48
2019-05-15T02:44:10.642Z,5.40
2019-05-15T02:45:09.956Z,5.45
2019-05-15T02:46:10.109Z,5.38
2019-05-15T02:47:09.230Z,5.35
2019-05-15T02:48:08.937Z,5.34
2019-05-15T02:49:08.772Z,5.25
2019-05-15T02:50:10.717Z,5.23
2019-05-15T02:51:09.700Z,5.32
2019-05-15T02:52:09.743Z,5.32
2019-05-15T02:53:09.787Z,5.20
2019-05-15T02:54:10.296Z,5.16
2019-05-15T02:55:09.406Z,5.22
2019-05-15T02:56:09.292Z,5.19
2019-05-15T02:57:09.846Z,5.20
2019-05-15T02:58:10.015Z,5.27
2019-05-15T02:59:09.218Z,5.16
2019-05-15T03:00:10.690Z,5.19
2019-05-15T03:01:09.279Z,5.14
2019-05-15T03:02:10.077Z,5.27
2019-05-15T03:03:09.493Z,5.22
2019-05-15T03:04:09.284Z,5.16
2019-05-15T03:05:09.319Z,5.20
2019-05-15T03:06:10.001Z,5.13
2019-05-15T03:07:09.676Z,5.10
2019-05-15T03:08:09.522Z,5.17
2019-05-15T03:09:09.460Z,5.10
2019-05-15T03:10:09.414Z,5.04
2019-05-15T03:11:09.774Z,5.13
2019-05-15T03:12:09.103Z,5.14
2019-05-15T03:13:09.689Z,5.12
2019-05-15T03:14:09.239Z,5.10
2019-05-15T03:15:09.642Z,5.04
2019-05-15T03:16:09.998Z,4.99
2019-05-15T03:17:09.809Z,4.99
2019-05-15T03:18:09.571Z,5.01
2019-05-15T03:19:09.996Z,4.96
2019-05-15T03:20:10.421Z,4.99
2019-05-15T03:21:09.638Z,4.99
2019-05-15T03:22:09.748Z,4.98
2019-05-15T03:23:09.640Z,5.02
2019-05-15T03:24:09.827Z,4.99
2019-05-15T03:25:10.518Z,4.99
2019-05-15T03:26:08.883Z,4.95
2019-05-15T03:27:09.159Z,4.89
2019-05-15T03:28:10.107Z,4.92
2019-05-15T03:29:09.772Z,4.89
2019-05-15T03:30:12.251Z,4.88
2019-05-15T03:31:26.595Z,4.83
2019-05-15T03:32:22.926Z,4.84
2019-05-15T03:33:15.776Z,4.80
2019-05-15T03:34:19.256Z,4.79
2019-05-15T03:35:13.763Z,4.83
2019-05-15T03:36:13.330Z,4.77
2019-05-15T03:37:12.301Z,4.79
2019-05-15T03:38:09.237Z,4.79
2019-05-15T03:39:09.544Z,4.76
2019-05-15T03:40:09.843Z,4.76
2019-05-15T03:41:09.888Z,4.58
2019-05-15T03:42:09.633Z,4.65
2019-05-15T03:43:09.167Z,4.67
2019-05-15T03:44:09.521Z,4.62
2019-05-15T03:45:09.653Z,4.65
2019-05-15T03:46:09.053Z,4.62
2019-05-15T03:47:09.272Z,4.69
2019-05-15T03:48:09.366Z,4.64
2019-05-15T03:49:08.627Z,4.61
2019-05-15T03:50:09.008Z,4.61
2019-05-15T03:51:09.188Z,4.65
2019-05-15T03:52:09.772Z,4.62
2019-05-15T03:53:09.807Z,4.62
2019-05-15T03:54:09.303Z,4.59
2019-05-15T03:55:10.115Z,4.51
2019-05-15T03:56:09.734Z,4.54
2019-05-15T03:57:09.571Z,4.51
2019-05-15T03:58:09.876Z,4.42
2019-05-15T03:59:09.375Z,4.37
2019-05-15T04:00:09.338Z,4.33
2019-05-15T04:01:27.875Z,4.37
2019-05-15T04:02:08.667Z,4.40
2019-05-15T04:03:10.262Z,4.43
2019-05-15T04:04:09.440Z,4.43
2019-05-15T04:05:06.603Z,4.37
2019-05-15T04:06:09.689Z,4.40
2019-05-15T04:07:09.229Z,4.39
2019-05-15T04:08:10.381Z,4.47
2019-05-15T04:09:09.331Z,4.39
2019-05-15T04:10:09.552Z,4.39
2019-05-15T04:11:09.117Z,4.37
2019-05-15T04:12:09.331Z,4.36
2019-05-15T04:13:09.369Z,4.39
2019-05-15T04:14:09.897Z,4.43
2019-05-15T04:15:09.793Z,4.39
2019-05-15T04:16:09.993Z,4.42
2019-05-15T04:17:09.073Z,4.46
2019-05-15T04:18:09.271Z,4.43
2019-05-15T04:19:09.412Z,4.46
2019-05-15T04:20:09.606Z,4.42
2019-05-15T04:21:09.033Z,4.42
2019-05-15T04:22:09.222Z,4.46
2019-05-15T04:23:09.770Z,4.47
2019-05-15T04:24:09.273Z,4.44
2019-05-15T04:25:09.390Z,4.36
2019-05-15T04:26:09.189Z,4.39
2019-05-15T04:27:10.482Z,4.51
2019-05-15T04:28:09.393Z,4.47
2019-05-15T04:29:09.501Z,4.51
2019-05-15T04:30:10.556Z,4.47
2019-05-15T04:31:09.254Z,4.46
2019-05-15T04:32:07.203Z,4.50
2019-05-15T04:33:09.085Z,4.51
2019-05-15T04:34:08.941Z,4.54
2019-05-15T04:35:09.190Z,4.46
2019-05-15T04:36:09.484Z,4.47
2019-05-15T04:37:09.196Z,4.51
2019-05-15T04:38:09.059Z,4.50
2019-05-15T04:39:09.553Z,4.52
2019-05-15T04:40:09.245Z,4.55
2019-05-15T04:41:09.452Z,4.50
2019-05-15T04:42:08.208Z,4.47
2019-05-15T04:43:06.184Z,4.52
2019-05-15T04:44:06.195Z,4.52
2019-05-15T04:45:09.657Z,4.54
2019-05-15T04:46:09.519Z,4.50
2019-05-15T04:47:09.442Z,4.54
2019-05-15T04:48:09.528Z,4.51
2019-05-15T04:49:09.112Z,4.52
2019-05-15T04:50:08.810Z,4.54
2019-05-15T04:51:09.455Z,4.52
2019-05-15T04:52:06.079Z,4.54
2019-05-15T04:53:06.085Z,4.52
2019-05-15T04:54:09.290Z,4.43
2019-05-15T04:55:09.687Z,4.50
2019-05-15T04:56:09.203Z,4.42
2019-05-15T04:57:09.000Z,4.34
2019-05-15T04:58:06.024Z,4.43
2019-05-15T04:59:06.022Z,4.40
2019-05-15T05:00:09.203Z,4.37
2019-05-15T05:01:09.148Z,4.47
2019-05-15T05:02:24.195Z,4.51
2019-05-15T05:03:09.861Z,4.52
2019-05-15T05:04:05.952Z,4.55
2019-05-15T05:05:05.953Z,4.58
2019-05-15T05:06:05.933Z,4.58
2019-05-15T05:07:05.915Z,4.64
2019-05-15T05:08:09.089Z,4.62
2019-05-15T05:09:08.935Z,4.64
2019-05-15T05:10:09.169Z,4.58
2019-05-15T05:11:05.877Z,4.64
2019-05-15T05:12:08.406Z,4.65
2019-05-15T05:13:08.778Z,4.76
2019-05-15T05:14:08.282Z,4.75
2019-05-15T05:15:08.254Z,4.75
2019-05-15T05:16:05.845Z,4.76
2019-05-15T05:17:08.811Z,4.80
2019-05-15T05:18:05.825Z,4.77
2019-05-15T05:19:08.726Z,4.79
2019-05-15T05:20:08.059Z,4.83
2019-05-15T05:21:07.738Z,4.84
2019-05-15T05:22:07.732Z,4.83
2019-05-15T05:23:08.406Z,4.84
2019-05-15T05:24:07.841Z,4.94
2019-05-15T05:25:07.843Z,4.86
2019-05-15T05:26:08.818Z,4.94
2019-05-15T05:27:08.762Z,4.95
2019-05-15T05:28:05.715Z,4.96
2019-05-15T05:29:05.682Z,4.99
2019-05-15T05:30:08.159Z,4.98
2019-05-15T05:31:08.158Z,5.05
2019-05-15T05:32:05.652Z,5.09
2019-05-15T05:33:05.640Z,5.14
2019-05-15T05:34:05.642Z,5.10
2019-05-15T05:35:08.200Z,5.10
2019-05-15T05:36:07.706Z,5.20
2019-05-15T05:37:07.710Z,5.19
2019-05-15T05:38:07.747Z,5.28
2019-05-15T05:39:05.608Z,5.35
2019-05-15T05:40:07.885Z,5.34
2019-05-15T05:41:07.958Z,5.41
2019-05-15T05:42:07.783Z,5.38
2019-05-15T05:43:05.555Z,5.49
2019-05-15T05:44:05.519Z,5.46
2019-05-15T05:45:05.652Z,5.53
2019-05-15T05:46:05.497Z,5.50
2019-05-15T05:47:05.560Z,5.56
2019-05-15T05:48:05.530Z,5.60
2019-05-15T05:49:07.971Z,5.57
2019-05-15T05:50:07.779Z,5.64
2019-05-15T05:51:05.462Z,5.66
2019-05-15T05:52:05.438Z,5.74
2019-05-15T05:53:05.422Z,5.78
2019-05-15T05:54:05.433Z,5.83
2019-05-15T05:55:05.415Z,5.88
2019-05-15T05:56:05.412Z,6.10
2019-05-15T05:57:05.393Z,6.21
2019-05-15T05:58:08.035Z,6.16
2019-05-15T05:59:05.385Z,6.30
2019-05-15T06:00:05.348Z,6.32
2019-05-15T06:01:05.366Z,6.51
2019-05-15T06:02:08.025Z,6.65
2019-05-15T06:03:08.493Z,6.81
2019-05-15T06:04:05.305Z,6.99
2019-05-15T06:05:07.775Z,7.09
2019-05-15T06:06:05.334Z,7.17
2019-05-15T06:07:10.033Z,7.24
2019-05-15T06:08:08.051Z,7.37
2019-05-15T06:09:05.255Z,7.42
2019-05-15T06:10:05.249Z,7.47
2019-05-15T06:11:05.253Z,7.66
2019-05-15T06:12:05.220Z,7.77
2019-05-15T06:13:08.497Z,7.92
2019-05-15T06:14:05.216Z,8.07
2019-05-15T06:15:05.190Z,8.30
2019-05-15T06:16:05.200Z,8.37
2019-05-15T06:17:05.187Z,8.45
2019-05-15T06:18:05.158Z,8.45
2019-05-15T06:19:05.154Z,8.47
2019-05-15T06:20:05.138Z,8.63
2019-05-15T06:21:05.183Z,8.73
2019-05-15T06:22:05.137Z,8.81
2019-05-15T06:23:05.120Z,8.83
2019-05-15T06:24:05.994Z,8.84
2019-05-15T06:25:05.306Z,9.05
2019-05-15T06:26:05.115Z,9.13
2019-05-15T06:27:05.067Z,9.21
2019-05-15T06:28:05.064Z,9.28
2019-05-15T06:29:05.043Z,9.34
2019-05-15T06:30:05.030Z,9.38
2019-05-15T06:31:05.067Z,9.40
2019-05-15T06:32:05.023Z,9.64
2019-05-15T06:33:10.653Z,9.71
2019-05-15T06:34:08.162Z,9.78
2019-05-15T06:35:04.989Z,9.82
2019-05-15T06:36:04.995Z,9.91
2019-05-15T06:37:05.005Z,9.86
2019-05-15T06:38:04.961Z,9.96
2019-05-15T06:39:04.938Z,10.10
2019-05-15T06:40:04.931Z,10.17
2019-05-15T06:41:04.914Z,10.22
2019-05-15T06:42:04.925Z,10.32
2019-05-15T06:43:04.897Z,10.34
2019-05-15T06:44:04.906Z,10.55
2019-05-15T06:45:04.873Z,10.62
2019-05-15T06:46:04.867Z,10.68
2019-05-15T06:47:04.872Z,10.74
2019-05-15T06:48:04.860Z,10.71
2019-05-15T06:49:04.836Z,10.77
2019-05-15T06:50:04.829Z,10.74
2019-05-15T06:51:04.807Z,10.78
2019-05-15T06:52:04.819Z,10.84
2019-05-15T06:53:07.649Z,10.95
2019-05-15T06:54:05.782Z,11.02
2019-05-15T06:55:04.774Z,11.11
2019-05-15T06:56:04.786Z,11.14
2019-05-15T06:57:04.785Z,11.16
2019-05-15T06:58:04.734Z,11.25
2019-05-15T06:59:04.730Z,11.28
2019-05-15T07:00:04.717Z,11.36
2019-05-15T07:01:04.716Z,11.46
2019-05-15T07:02:04.691Z,11.53
2019-05-15T07:03:16.767Z,11.61
2019-05-15T07:04:05.671Z,11.54
2019-05-15T07:05:04.660Z,11.64
2019-05-15T07:06:04.667Z,11.72
2019-05-15T07:07:04.643Z,11.82
2019-05-15T07:08:04.648Z,11.72
2019-05-15T07:09:04.619Z,11.93
2019-05-15T07:10:04.622Z,12.05
2019-05-15T07:11:04.594Z,12.13
2019-05-15T07:12:04.588Z,12.15
2019-05-15T07:13:04.619Z,12.24
2019-05-15T07:14:04.578Z,12.34
2019-05-15T07:15:04.583Z,12.38
2019-05-15T07:16:04.542Z,12.49
2019-05-15T07:17:04.532Z,12.49
2019-05-15T07:18:04.529Z,12.54
2019-05-15T07:19:04.530Z,12.56
2019-05-15T07:20:04.542Z,12.60
2019-05-15T07:21:04.493Z,12.63
2019-05-15T07:22:04.479Z,12.71
2019-05-15T07:23:04.471Z,12.82
2019-05-15T07:24:04.481Z,12.77
2019-05-15T07:25:04.569Z,12.85
2019-05-15T07:26:04.451Z,12.96
2019-05-15T07:27:04.427Z,12.97
2019-05-15T07:28:04.415Z,12.99
2019-05-15T07:29:04.430Z,12.99
2019-05-15T07:30:04.418Z,13.00
2019-05-15T07:31:04.385Z,13.06
2019-05-15T07:32:04.383Z,13.07
2019-05-15T07:33:04.362Z,13.20
2019-05-15T07:34:04.383Z,13.09
2019-05-15T07:35:04.342Z,13.15
2019-05-15T07:36:04.335Z,13.18
2019-05-15T07:37:04.342Z,13.32
2019-05-15T07:38:04.310Z,13.22
2019-05-15T07:39:04.342Z,13.38
2019-05-15T07:40:04.290Z,13.33
2019-05-15T07:41:04.693Z,13.46
2019-05-15T07:42:04.266Z,13.43
2019-05-15T07:43:04.267Z,13.51
2019-05-15T07:44:04.259Z,13.55
2019-05-15T07:45:04.258Z,13.65
2019-05-15T07:46:04.227Z,13.73
2019-05-15T07:47:04.217Z,13.73
2019-05-15T07:48:04.204Z,13.77
2019-05-15T07:49:04.204Z,13.81
2019-05-15T07:50:04.219Z,13.80
2019-05-15T07:51:04.172Z,13.84
2019-05-15T07:52:04.162Z,13.84
2019-05-15T07:53:04.154Z,13.95
2019-05-15T07:54:04.141Z,13.87
2019-05-15T07:55:04.170Z,13.94
2019-05-15T07:56:04.143Z,13.88
2019-05-15T07:57:04.111Z,14.02
2019-05-15T07:58:04.108Z,14.06
2019-05-15T07:59:04.093Z,14.06
2019-05-15T08:00:04.080Z,14.06
2019-05-15T08:01:05.509Z,14.07
2019-05-15T08:02:04.055Z,14.10
2019-05-15T08:03:04.047Z,14.10
2019-05-15T08:04:22.709Z,14.09
2019-05-15T08:05:11.572Z,14.09
2019-05-15T08:06:04.038Z,14.09
2019-05-15T08:07:11.565Z,14.04
2019-05-15T08:08:04.029Z,14.13
2019-05-15T08:09:03.991Z,14.16
2019-05-15T08:10:03.977Z,14.20
2019-05-15T08:11:17.480Z,14.35
2019-05-15T08:12:04.950Z,14.34
2019-05-15T08:13:11.495Z,14.35
2019-05-15T08:14:03.936Z,14.38
2019-05-15T08:15:03.923Z,14.38
2019-05-15T08:16:03.953Z,14.35
2019-05-15T08:17:03.907Z,14.47
2019-05-15T08:18:09.191Z,14.44
2019-05-15T08:19:04.885Z,14.60
2019-05-15T08:20:03.869Z,14.61
2019-05-15T08:21:03.857Z,14.61
2019-05-15T08:22:03.874Z,14.61
2019-05-15T08:23:03.893Z,14.57
2019-05-15T08:24:03.829Z,14.68
2019-05-15T08:25:06.752Z,14.80
2019-05-15T08:26:03.807Z,14.78
2019-05-15T08:27:03.820Z,14.81
2019-05-15T08:28:03.784Z,14.94
2019-05-15T08:29:03.780Z,15.02
2019-05-15T08:30:03.768Z,14.98
2019-05-15T08:31:06.545Z,14.99
2019-05-15T08:32:04.786Z,15.02
2019-05-15T08:33:03.773Z,15.06
2019-05-15T08:34:13.564Z,15.02
2019-05-15T08:35:04.710Z,14.95
2019-05-15T08:36:03.698Z,14.91
2019-05-15T08:37:03.706Z,14.81
2019-05-15T08:38:03.681Z,14.72
2019-05-15T08:39:03.665Z,14.78
2019-05-15T08:40:03.673Z,14.74
2019-05-15T08:41:03.645Z,14.80
2019-05-15T08:42:03.657Z,14.90
2019-05-15T08:43:03.634Z,15.02
2019-05-15T08:44:03.623Z,15.03
2019-05-15T08:45:03.603Z,15.03
2019-05-15T08:46:03.601Z,15.21
2019-05-15T08:47:03.583Z,15.27
2019-05-15T08:48:03.594Z,15.26
2019-05-15T08:49:03.612Z,15.27
2019-05-15T08:50:03.551Z,15.30
2019-05-15T08:51:03.558Z,15.30
2019-05-15T08:52:03.565Z,15.20
2019-05-15T08:53:03.572Z,15.12
2019-05-15T08:54:03.544Z,15.08
2019-05-15T08:55:03.500Z,15.28
2019-05-15T08:56:03.496Z,15.17
2019-05-15T08:57:03.485Z,15.35
2019-05-15T08:58:08.461Z,15.45
2019-05-15T08:59:04.458Z,15.46
2019-05-15T09:00:03.469Z,15.64
2019-05-15T09:01:03.456Z,15.89
2019-05-15T09:02:03.430Z,15.89
2019-05-15T09:03:03.408Z,15.94
2019-05-15T09:04:03.414Z,16.11
2019-05-15T09:05:03.389Z,16.16
2019-05-15T09:06:03.381Z,16.23
2019-05-15T09:07:03.371Z,16.04
2019-05-15T09:08:03.366Z,16.00
2019-05-15T09:09:03.384Z,15.89
2019-05-15T09:10:03.376Z,15.99
2019-05-15T09:11:03.333Z,15.82
2019-05-15T09:12:03.331Z,15.67
2019-05-15T09:13:03.321Z,15.54
2019-05-15T09:14:03.317Z,15.42
2019-05-15T09:15:03.275Z,15.51
2019-05-15T09:16:03.274Z,15.52
2019-05-15T09:17:03.258Z,15.60
2019-05-15T09:18:14.849Z,15.72
2019-05-15T09:19:04.307Z,15.92
2019-05-15T09:20:03.223Z,15.89
2019-05-15T09:21:03.254Z,15.96
2019-05-15T09:22:03.211Z,15.85
2019-05-15T09:23:03.192Z,15.97
2019-05-15T09:24:03.198Z,16.15
2019-05-15T09:25:03.173Z,16.16
2019-05-15T09:26:03.155Z,16.26
2019-05-15T09:27:03.165Z,16.40
2019-05-15T09:28:03.149Z,16.38
2019-05-15T09:29:03.142Z,16.48
2019-05-15T09:30:03.114Z,16.41
2019-05-15T09:31:03.106Z,16.41
2019-05-15T09:32:03.101Z,16.50
2019-05-15T09:33:03.092Z,16.53
2019-05-15T09:34:03.093Z,16.60
2019-05-15T09:35:03.067Z,16.53
2019-05-15T09:36:03.056Z,16.44
2019-05-15T09:37:03.057Z,16.44
2019-05-15T09:38:03.036Z,16.48
2019-05-15T09:39:03.050Z,16.31
2019-05-15T09:40:03.018Z,16.38
2019-05-15T09:41:03.001Z,16.49
2019-05-15T09:42:02.994Z,16.73
2019-05-15T09:43:02.986Z,16.59
2019-05-15T09:44:03.028Z,16.60
2019-05-15T09:45:02.989Z,16.44
2019-05-15T09:46:02.956Z,16.44
2019-05-15T09:47:02.938Z,16.48
2019-05-15T09:48:02.940Z,16.74
2019-05-15T09:49:02.922Z,16.86
2019-05-15T09:50:02.932Z,16.83
2019-05-15T09:51:02.907Z,16.93
2019-05-15T09:52:02.884Z,16.88
2019-05-15T09:53:02.899Z,16.71
2019-05-15T09:54:02.867Z,16.81
2019-05-15T09:55:02.896Z,16.93
2019-05-15T09:56:02.875Z,17.06
2019-05-15T09:57:02.842Z,17.15
2019-05-15T09:58:02.825Z,17.17
2019-05-15T09:59:02.805Z,17.28
2019-05-15T10:00:02.793Z,17.46
2019-05-15T10:01:02.856Z,17.51
2019-05-15T10:02:02.784Z,17.76
2019-05-15T10:03:02.781Z,17.73
2019-05-15T10:04:02.769Z,17.74
2019-05-15T10:05:06.490Z,17.92
2019-05-15T10:06:03.747Z,17.97
2019-05-15T10:07:02.725Z,18.03
2019-05-15T10:08:02.747Z,17.87
2019-05-15T10:09:02.704Z,17.76
2019-05-15T10:10:02.695Z,17.79
2019-05-15T10:11:02.702Z,17.59
2019-05-15T10:12:02.670Z,17.81
2019-05-15T10:13:02.696Z,17.87
2019-05-15T10:14:02.652Z,17.82
2019-05-15T10:15:02.643Z,17.88
2019-05-15T10:16:02.654Z,17.95
2019-05-15T10:17:02.640Z,18.02
2019-05-15T10:18:02.606Z,17.92
2019-05-15T10:19:02.610Z,18.00
2019-05-15T10:20:02.610Z,18.12
2019-05-15T10:21:02.569Z,18.15
2019-05-15T10:22:02.583Z,18.03
2019-05-15T10:23:02.549Z,17.99
2019-05-15T10:24:02.553Z,18.09
2019-05-15T10:25:02.545Z,17.97
2019-05-15T10:26:02.532Z,17.97
2019-05-15T10:27:02.530Z,18.03
2019-05-15T10:28:02.513Z,18.07
2019-05-15T10:29:02.488Z,18.09
2019-05-15T10:30:02.478Z,18.12
2019-05-15T10:31:02.476Z,18.27
2019-05-15T10:32:02.472Z,18.29
2019-05-15T10:33:02.483Z,18.44
2019-05-15T10:34:02.448Z,18.50
2019-05-15T10:35:02.430Z,18.62
2019-05-15T10:36:02.412Z,18.67
2019-05-15T10:37:02.423Z,18.76
2019-05-15T10:38:02.397Z,18.64
2019-05-15T10:39:02.471Z,18.62
2019-05-15T10:40:02.376Z,18.72
2019-05-15T10:41:08.696Z,18.61
2019-05-15T10:42:03.373Z,18.54
2019-05-15T10:43:02.374Z,18.54
2019-05-15T10:44:02.332Z,18.50
2019-05-15T10:45:02.338Z,18.55
2019-05-15T10:46:02.318Z,18.74
2019-05-15T10:47:02.293Z,18.77
2019-05-15T10:48:02.320Z,18.61
2019-05-15T10:49:02.278Z,18.52
2019-05-15T10:50:02.287Z,18.70
2019-05-15T10:51:07.165Z,18.72
2019-05-15T10:52:03.467Z,18.61
2019-05-15T10:53:03.139Z,18.73
2019-05-15T10:54:02.225Z,18.73
2019-05-15T10:55:02.214Z,18.80
2019-05-15T10:56:02.738Z,18.86
2019-05-15T10:57:05.154Z,18.95
2019-05-15T10:58:02.210Z,18.98
2019-05-15T10:59:02.164Z,18.87
2019-05-15T11:00:02.170Z,19.01
2019-05-15T11:01:03.289Z,18.94
2019-05-15T11:02:02.162Z,18.91
2019-05-15T11:03:02.418Z,18.92
2019-05-15T11:04:02.126Z,18.91
2019-05-15T11:05:02.104Z,18.87
2019-05-15T11:06:02.099Z,18.83
2019-05-15T11:07:02.095Z,18.91
2019-05-15T11:08:02.080Z,18.99
2019-05-15T11:09:02.077Z,18.91
2019-05-15T11:10:02.051Z,18.80
2019-05-15T11:11:02.047Z,18.68
2019-05-15T11:12:02.043Z,18.74
2019-05-15T11:13:02.026Z,18.82
2019-05-15T11:14:02.265Z,18.76
2019-05-15T11:15:02.046Z,18.79
2019-05-15T11:16:01.986Z,18.79
2019-05-15T11:17:01.974Z,18.82
2019-05-15T11:18:01.967Z,18.76
2019-05-15T11:19:01.987Z,18.67
2019-05-15T11:20:01.960Z,18.62
2019-05-15T11:21:01.934Z,18.68
2019-05-15T11:22:01.970Z,18.62
2019-05-15T11:23:01.934Z,18.65
2019-05-15T11:24:01.943Z,18.79
2019-05-15T11:25:01.891Z,18.76
2019-05-15T11:26:01.887Z,18.94
2019-05-15T11:27:01.869Z,18.97
2019-05-15T11:28:01.884Z,19.02
2019-05-15T11:29:01.850Z,19.08
2019-05-15T11:30:01.856Z,19.06
2019-05-15T11:31:01.992Z,18.91
2019-05-15T11:32:01.817Z,18.77
2019-05-15T11:33:01.845Z,18.67
2019-05-15T11:34:01.819Z,18.55
2019-05-15T11:35:04.303Z,18.33
2019-05-15T11:36:05.851Z,18.24
2019-05-15T11:37:01.780Z,18.24
2019-05-15T11:38:01.762Z,18.18
2019-05-15T11:39:01.738Z,18.21
2019-05-15T11:40:01.766Z,18.36
2019-05-15T11:41:04.572Z,18.50
2019-05-15T11:42:01.720Z,18.73
2019-05-15T11:43:01.726Z,18.91
2019-05-15T11:44:01.692Z,19.10
2019-05-15T11:45:01.696Z,19.33
2019-05-15T11:46:01.678Z,19.46
2019-05-15T11:47:01.655Z,19.53
2019-05-15T11:48:01.653Z,19.48
2019-05-15T11:49:01.634Z,19.53
2019-05-15T11:50:01.651Z,19.38
2019-05-15T11:51:01.615Z,19.47
2019-05-15T11:52:01.606Z,19.32
2019-05-15T11:53:01.594Z,19.15
2019-05-15T11:54:01.582Z,18.79
2019-05-15T11:55:01.630Z,18.74
2019-05-15T11:56:01.596Z,18.84
2019-05-15T11:57:01.585Z,18.90
2019-05-15T11:58:01.558Z,18.99
2019-05-15T11:59:01.548Z,18.97
2019-05-15T12:00:01.808Z,18.95
2019-05-15T12:01:01.507Z,19.06
2019-05-15T12:02:01.495Z,18.95
2019-05-15T12:03:01.483Z,18.91
2019-05-15T12:04:01.481Z,18.94
2019-05-15T12:05:01.507Z,18.97
2019-05-15T12:06:14.930Z,19.15
2019-05-15T12:07:02.775Z,19.11
2019-05-15T12:08:01.438Z,19.14
2019-05-15T12:09:01.425Z,19.05
2019-05-15T12:10:01.422Z,18.92
2019-05-15T12:11:01.450Z,19.11
2019-05-15T12:12:01.402Z,19.23
2019-05-15T12:13:01.378Z,19.40
2019-05-15T12:14:01.388Z,19.39
2019-05-15T12:15:01.378Z,19.35
2019-05-15T12:16:01.383Z,19.25
2019-05-15T12:17:10.682Z,19.25
2019-05-15T12:18:02.339Z,19.28
2019-05-15T12:19:09.125Z,19.33
2019-05-15T12:20:06.183Z,19.43
2019-05-15T12:21:01.319Z,19.55
2019-05-15T12:22:01.285Z,19.28
2019-05-15T12:23:01.295Z,19.35
2019-05-15T12:24:01.265Z,19.29
2019-05-15T12:25:01.652Z,19.02
2019-05-15T12:26:01.274Z,18.99
2019-05-15T12:27:13.914Z,19.01
2019-05-15T12:28:02.222Z,18.83
2019-05-15T12:29:01.214Z,18.61
2019-05-15T12:30:01.205Z,18.62
2019-05-15T12:31:01.234Z,18.62
2019-05-15T12:33:02.181Z,18.84
2019-05-15T12:34:01.161Z,19.08
2019-05-15T12:35:01.152Z,19.28
2019-05-15T12:36:01.139Z,19.28
2019-05-15T12:37:01.156Z,19.36
2019-05-15T12:38:01.128Z,19.51
2019-05-15T12:39:09.497Z,19.70
2019-05-15T13:00:01.883Z,19.90
2019-05-15T13:01:12.802Z,19.86
2019-05-15T13:02:01.868Z,19.70
2019-05-15T13:03:00.876Z,19.51
2019-05-15T13:04:00.854Z,19.33
2019-05-15T13:05:00.837Z,19.29
2019-05-15T13:06:00.824Z,19.23
2019-05-15T13:07:12.838Z,19.25
2019-05-15T13:08:01.817Z,19.13
2019-05-15T13:09:00.802Z,19.10
2019-05-15T13:10:00.776Z,19.25
2019-05-15T13:11:00.764Z,19.42
2019-05-15T13:12:00.753Z,19.50
2019-05-15T13:13:05.095Z,19.60
2019-05-15T13:14:00.741Z,19.72
2019-05-15T13:15:00.726Z,19.73
2019-05-15T13:16:00.711Z,19.83
2019-05-15T13:17:00.706Z,19.88
2019-05-15T13:18:00.803Z,19.86
2019-05-15T13:19:00.704Z,19.79
2019-05-15T13:20:00.725Z,19.75
2019-05-15T13:21:00.690Z,19.76
2019-05-15T13:22:01.185Z,19.87
2019-05-15T13:23:00.639Z,19.95
2019-05-15T13:24:00.663Z,19.95
2019-05-15T13:25:00.639Z,19.84
2019-05-15T13:26:00.604Z,19.84